Time;durP1;ratioP1;P1;durP2;ratioP2;P2;SDS_P1;SDS_P2;PMS_P1;PMS_P2;Temp;Humidity;BMP_temperature;BMP_pressure;BME280_temperature;BME280_humidity;BME280_pressure;Samples;Min_cycle;Max_cycle;Signal;HPM_P1;HPM_P2
2022/05/28 00:02:13;;;;;;;8.80;2.20;;;15.40;59.00;;;;;;5015599;28;20030;-65
2022/05/28 00:04:39;;;;;;;9.18;2.20;;;15.30;58.90;;;;;;5015171;28;20049;-65
2022/05/28 00:07:05;;;;;;;9.82;2.20;;;15.40;59.10;;;;;;5023352;28;20391;-65
2022/05/28 00:09:31;;;;;;;7.55;1.85;;;15.40;59.20;;;;;;5034699;28;20033;-65
2022/05/28 00:11:57;;;;;;;8.93;2.20;;;15.30;59.20;;;;;;5040508;28;20048;-65
2022/05/28 00:14:22;;;;;;;9.48;2.53;;;15.30;59.30;;;;;;5016865;28;20025;-64
2022/05/28 00:16:48;;;;;;;6.03;1.83;;;15.30;59.30;;;;;;5034657;28;20044;-65
2022/05/28 00:19:13;;;;;;;8.52;2.30;;;15.20;59.40;;;;;;5024025;28;20029;-65
2022/05/28 00:21:39;;;;;;;7.22;2.30;;;15.20;59.60;;;;;;5031009;28;20030;-65
2022/05/28 00:24:05;;;;;;;8.65;2.47;;;15.20;59.70;;;;;;5013542;28;20060;-65
2022/05/28 00:26:31;;;;;;;7.75;2.40;;;15.20;60.50;;;;;;5015124;28;20121;-65
2022/05/28 00:28:56;;;;;;;7.18;1.70;;;15.20;60.10;;;;;;5014680;28;20443;-65
2022/05/28 00:31:22;;;;;;;8.35;2.55;;;15.10;60.20;;;;;;5013844;28;20054;-65
2022/05/28 00:33:48;;;;;;;10.15;2.00;;;15.10;60.40;;;;;;5025970;28;20034;-65
2022/05/28 00:36:15;;;;;;;8.95;2.67;;;15.10;60.50;;;;;;5034483;28;20034;-65
2022/05/28 00:38:42;;;;;;;9.55;2.22;;;15.10;60.70;;;;;;5030559;28;20087;-65
2022/05/28 00:41:09;;;;;;;10.02;2.95;;;15.10;60.80;;;;;;5034311;28;20472;-65
2022/05/28 00:43:37;;;;;;;9.05;2.30;;;15.10;60.80;;;;;;5018079;28;20100;-65
2022/05/28 00:46:06;;;;;;;9.73;2.47;;;15.10;60.90;;;;;;5033536;28;20033;-65
2022/05/28 00:48:35;;;;;;;7.45;2.17;;;15.00;60.90;;;;;;5033299;28;20375;-65
2022/05/28 00:51:27;;;;;;;9.27;2.80;;;15.00;61.00;;;;;;5034690;28;20060;-65
2022/05/28 00:53:56;;;;;;;8.15;2.38;;;15.00;61.20;;;;;;5028493;28;20053;-65
2022/05/28 00:56:24;;;;;;;9.57;2.15;;;15.00;61.40;;;;;;5029860;28;20061;-65
2022/05/28 00:58:50;;;;;;;9.80;2.30;;;15.00;61.50;;;;;;5015034;28;20137;-65
2022/05/28 01:01:20;;;;;;;10.63;2.15;;;14.90;61.60;;;;;;5019238;28;21005;-65
2022/05/28 01:04:10;;;;;;;8.73;2.53;;;14.90;61.80;;;;;;5013210;28;20108;-65
2022/05/28 01:06:57;;;;;;;7.57;2.20;;;14.90;61.90;;;;;;5014856;28;20042;-65
2022/05/28 01:09:37;;;;;;;10.50;2.55;;;14.90;62.00;;;;;;5013839;28;20080;-65
2022/05/28 01:12:05;;;;;;;9.30;2.33;;;14.90;62.10;;;;;;5013917;28;20139;-65
2022/05/28 01:14:51;;;;;;;9.93;2.40;;;14.90;62.20;;;;;;5013922;28;20406;-65
2022/05/28 01:17:35;;;;;;;9.52;2.45;;;14.80;62.30;;;;;;5015646;28;20034;-65
2022/05/28 01:20:22;;;;;;;9.27;2.60;;;14.80;63.10;;;;;;5031281;28;20454;-65
2022/05/28 01:23:02;;;;;;;8.77;2.42;;;14.80;62.60;;;;;;5027403;28;20076;-65
2022/05/28 01:25:47;;;;;;;10.13;2.63;;;14.70;62.70;;;;;;5029634;28;20113;-65
2022/05/28 01:28:17;;;;;;;10.32;2.33;;;14.80;62.80;;;;;;5029382;28;20037;-65
2022/05/28 01:30:44;;;;;;;7.63;2.30;;;14.80;62.80;;;;;;5031212;28;20064;-65
2022/05/28 01:33:12;;;;;;;6.60;2.40;;;14.70;62.80;;;;;;5031020;28;20429;-65
2022/05/28 01:35:39;;;;;;;7.63;2.60;;;14.80;63.00;;;;;;5026360;28;20032;-65
2022/05/28 01:38:07;;;;;;;7.72;2.78;;;14.70;63.10;;;;;;5022975;28;20028;-65
2022/05/28 01:40:34;;;;;;;7.07;2.53;;;14.70;63.30;;;;;;5026905;28;20033;-65
2022/05/28 01:43:05;;;;;;;9.65;2.42;;;14.70;63.40;;;;;;5027251;28;20038;-65
2022/05/28 01:45:32;;;;;;;8.45;2.28;;;14.70;63.50;;;;;;5019002;28;20056;-65
2022/05/28 01:48:00;;;;;;;9.98;2.78;;;14.70;63.50;;;;;;5032871;28;20038;-65
2022/05/28 01:50:29;;;;;;;8.57;2.65;;;14.70;63.60;;;;;;5033190;28;20344;-65
2022/05/28 01:52:56;;;;;;;10.15;2.17;;;14.70;63.70;;;;;;5018276;28;20025;-65
2022/05/28 01:55:25;;;;;;;8.05;2.50;;;14.70;63.70;;;;;;5031571;28;20040;-65
2022/05/28 01:57:51;;;;;;;9.60;2.75;;;14.70;63.80;;;;;;5025593;28;20072;-65
2022/05/28 02:00:17;;;;;;;9.25;2.00;;;14.60;64.50;;;;;;5035883;28;20434;-64
2022/05/28 02:02:43;;;;;;;10.38;2.22;;;14.60;63.90;;;;;;5036632;28;20473;-65
2022/05/28 02:05:09;;;;;;;8.52;2.50;;;14.60;64.00;;;;;;5035001;28;20944;-65
2022/05/28 02:07:35;;;;;;;7.43;2.13;;;14.60;64.10;;;;;;5029797;28;20041;-65
2022/05/28 02:10:09;;;;;;;7.32;2.10;;;14.70;64.20;;;;;;5033237;28;20029;-64
2022/05/28 02:13:01;;;;;;;8.73;2.08;;;14.60;64.20;;;;;;5025303;28;20045;-65
2022/05/28 02:15:42;;;;;;;9.20;2.42;;;14.70;64.40;;;;;;5031484;28;20105;-65
2022/05/28 02:18:16;;;;;;;9.93;2.53;;;14.60;64.40;;;;;;5011712;28;20383;-64
2022/05/28 02:20:48;;;;;;;7.70;2.20;;;14.70;64.50;;;;;;5030890;28;20112;-65
2022/05/28 02:23:22;;;;;;;9.43;2.38;;;14.60;64.50;;;;;;5017783;28;20354;-65
2022/05/28 02:25:57;;;;;;;7.50;2.00;;;14.60;64.60;;;;;;5032658;28;20030;-65
2022/05/28 02:28:23;;;;;;;6.82;2.00;;;14.60;64.80;;;;;;5032940;28;20042;-65
2022/05/28 02:30:52;;;;;;;6.30;2.10;;;14.60;64.80;;;;;;5031647;28;20107;-65
2022/05/28 02:33:19;;;;;;;8.77;2.45;;;14.60;65.00;;;;;;5034756;28;20033;-65
2022/05/28 02:35:45;;;;;;;9.40;2.13;;;14.60;65.10;;;;;;5029187;28;20045;-65
2022/05/28 02:38:12;;;;;;;6.30;1.90;;;14.60;65.20;;;;;;5033821;28;20013;-65
2022/05/28 02:40:38;;;;;;;8.60;2.28;;;14.60;65.30;;;;;;5025591;28;20069;-65
2022/05/28 02:43:04;;;;;;;6.57;1.90;;;14.50;65.40;;;;;;5033387;28;20096;-65
2022/05/28 02:45:29;;;;;;;9.45;2.33;;;14.50;66.20;;;;;;5030848;28;20492;-65
2022/05/28 02:47:56;;;;;;;9.95;2.22;;;14.50;65.60;;;;;;5024070;28;20033;-65
2022/05/28 02:50:24;;;;;;;10.05;2.88;;;14.50;65.70;;;;;;5033557;28;20179;-65
2022/05/28 02:52:49;;;;;;;7.78;2.17;;;14.50;65.90;;;;;;5031060;28;20056;-65
2022/05/28 02:55:15;;;;;;;8.40;2.17;;;14.40;65.90;;;;;;5029387;28;20041;-65
2022/05/28 02:57:40;;;;;;;8.00;1.98;;;14.40;66.00;;;;;;5029802;28;20059;-65
2022/05/28 03:00:07;;;;;;;9.45;2.45;;;14.40;66.10;;;;;;5034789;28;20030;-65
2022/05/28 03:02:33;;;;;;;7.43;1.90;;;14.40;66.10;;;;;;5028630;28;20038;-65
2022/05/28 03:04:58;;;;;;;8.98;2.40;;;14.40;66.20;;;;;;5041983;28;20040;-65
2022/05/28 03:07:24;;;;;;;9.98;2.28;;;14.40;66.20;;;;;;5030006;28;20076;-65
2022/05/28 03:09:50;;;;;;;7.05;2.05;;;14.40;66.20;;;;;;5033887;28;20030;-64
2022/05/28 03:12:16;;;;;;;7.80;2.30;;;14.40;66.20;;;;;;5022220;28;20037;-65
2022/05/28 03:14:42;;;;;;;7.10;2.00;;;14.40;66.20;;;;;;5035117;28;20095;-65
2022/05/28 03:17:07;;;;;;;9.55;2.30;;;14.40;66.40;;;;;;5032056;28;20034;-64
2022/05/28 03:19:33;;;;;;;8.73;2.03;;;14.40;66.50;;;;;;5034084;28;20098;-65
2022/05/28 03:21:58;;;;;;;9.75;2.25;;;14.30;66.50;;;;;;5032722;28;20044;-64
2022/05/28 03:24:24;;;;;;;9.75;2.90;;;14.30;66.50;;;;;;5031785;28;20030;-65
2022/05/28 03:26:49;;;;;;;10.63;2.88;;;14.30;66.70;;;;;;5032153;28;20044;-65
2022/05/28 03:29:15;;;;;;;8.77;2.25;;;14.20;66.80;;;;;;5030079;28;20479;-65
2022/05/28 03:31:40;;;;;;;8.25;2.10;;;14.30;66.90;;;;;;5031465;28;20382;-65
2022/05/28 03:34:06;;;;;;;10.55;2.53;;;14.20;66.90;;;;;;5028833;28;20017;-65
2022/05/28 03:36:31;;;;;;;9.60;2.22;;;14.20;66.90;;;;;;5032809;28;20037;-65
2022/05/28 03:38:57;;;;;;;9.68;2.10;;;14.30;66.90;;;;;;5032712;28;20061;-65
2022/05/28 03:41:23;;;;;;;12.80;2.70;;;14.30;66.80;;;;;;5034787;28;20424;-65
2022/05/28 03:43:49;;;;;;;7.15;2.05;;;14.30;66.80;;;;;;5013321;28;20021;-65
2022/05/28 03:46:30;;;;;;;10.55;2.55;;;14.30;66.80;;;;;;5028659;28;20473;-65
2022/05/28 03:49:00;;;;;;;6.90;1.70;;;14.30;66.80;;;;;;5034685;28;20033;-65
2022/05/28 03:51:26;;;;;;;9.73;1.90;;;14.30;66.80;;;;;;5034908;28;20026;-65
2022/05/28 03:53:52;;;;;;;14.05;2.50;;;14.20;66.80;;;;;;5017917;28;20176;-65
2022/05/28 03:56:19;;;;;;;8.52;2.20;;;14.20;66.80;;;;;;5030759;28;20517;-65
2022/05/28 03:58:45;;;;;;;8.55;1.83;;;14.20;66.90;;;;;;5033347;28;20103;-65
2022/05/28 04:01:11;;;;;;;5.38;1.67;;;14.20;66.90;;;;;;5031025;28;20038;-65
2022/05/28 04:03:36;;;;;;;8.55;2.00;;;14.20;66.90;;;;;;5032618;28;20120;-65
2022/05/28 04:06:03;;;;;;;8.73;2.13;;;14.20;66.80;;;;;;5021603;28;20124;-65
2022/05/28 04:08:29;;;;;;;7.00;1.85;;;14.20;66.80;;;;;;5028045;28;20076;-64
2022/05/28 04:10:55;;;;;;;6.35;1.67;;;14.20;66.80;;;;;;5032876;28;20060;-65
2022/05/28 04:13:20;;;;;;;8.13;2.45;;;14.20;66.80;;;;;;5031707;28;20030;-64
2022/05/28 04:15:48;;;;;;;6.22;1.60;;;14.20;66.80;;;;;;5029716;28;20040;-64
2022/05/28 04:18:13;;;;;;;5.75;1.88;;;14.20;66.70;;;;;;5044800;28;20025;-64
2022/05/28 04:20:39;;;;;;;7.95;1.77;;;14.20;66.80;;;;;;5019113;28;20025;-64
2022/05/28 04:23:04;;;;;;;8.57;2.00;;;14.20;66.80;;;;;;5029708;28;20148;-64
2022/05/28 04:25:30;;;;;;;6.25;1.77;;;14.20;66.70;;;;;;5023821;28;20061;-67
2022/05/28 04:27:55;;;;;;;7.03;1.73;;;14.20;66.70;;;;;;5027299;28;20021;-64
2022/05/28 04:30:21;;;;;;;7.75;1.92;;;14.20;66.60;;;;;;5031018;28;20414;-65
2022/05/28 04:32:47;;;;;;;8.27;1.73;;;14.20;66.60;;;;;;5016281;28;20041;-65
2022/05/28 04:35:12;;;;;;;8.63;1.90;;;14.20;66.50;;;;;;5033045;28;20033;-65
2022/05/28 04:37:38;;;;;;;8.30;1.80;;;14.20;66.40;;;;;;5031458;28;20025;-65
2022/05/28 04:40:04;;;;;;;4.95;1.60;;;14.20;66.40;;;;;;5018445;28;20439;-65
2022/05/28 04:42:30;;;;;;;6.85;1.65;;;14.20;66.40;;;;;;5024897;28;20038;-65
2022/05/28 04:44:56;;;;;;;5.88;1.67;;;14.30;66.30;;;;;;5030604;28;20033;-65
2022/05/28 04:47:23;;;;;;;3.97;1.40;;;14.30;66.20;;;;;;5020120;28;20109;-65
2022/05/28 04:49:48;;;;;;;6.57;1.52;;;14.30;66.20;;;;;;5032850;28;20124;-65
2022/05/28 04:52:14;;;;;;;6.50;1.75;;;14.30;66.10;;;;;;5029464;28;20116;-65
2022/05/28 04:54:39;;;;;;;6.90;1.55;;;14.30;66.00;;;;;;5030936;28;20100;-65
2022/05/28 04:57:05;;;;;;;5.40;1.42;;;14.40;66.00;;;;;;5032807;28;20025;-66
2022/05/28 04:59:31;;;;;;;6.05;1.77;;;14.40;65.90;;;;;;5033524;28;20511;-65
2022/05/28 05:01:56;;;;;;;9.02;2.08;;;14.40;65.60;;;;;;5030518;28;20040;-64
2022/05/28 05:04:22;;;;;;;5.00;1.35;;;14.50;66.20;;;;;;5025640;28;20406;-64
2022/05/28 05:06:47;;;;;;;5.95;1.40;;;14.50;65.30;;;;;;5036433;28;20029;-64
2022/05/28 05:09:13;;;;;;;4.40;1.30;;;14.60;65.10;;;;;;5033093;28;20397;-64
2022/05/28 05:11:38;;;;;;;6.32;1.50;;;14.70;64.90;;;;;;5037198;28;20037;-64
2022/05/28 05:14:04;;;;;;;7.68;1.65;;;15.20;64.20;;;;;;5028476;28;20351;-64
2022/05/28 05:16:30;;;;;;;3.13;1.00;;;15.60;62.70;;;;;;5040182;28;20032;-64
2022/05/28 05:18:55;;;;;;;5.07;1.25;;;15.60;62.10;;;;;;5036964;28;20426;-64
2022/05/28 05:21:21;;;;;;;8.75;1.50;;;15.60;62.20;;;;;;5035297;28;20052;-64
2022/05/28 05:23:46;;;;;;;7.93;1.55;;;15.50;62.30;;;;;;5032787;28;20025;-64
2022/05/28 05:26:15;;;;;;;5.82;1.30;;;15.50;62.40;;;;;;5038281;28;20115;-64
2022/05/28 05:28:41;;;;;;;7.28;1.25;;;15.60;62.30;;;;;;5041240;28;20038;-64
2022/05/28 05:31:07;;;;;;;4.93;1.08;;;15.70;62.20;;;;;;5039152;28;20409;-64
2022/05/28 05:33:32;;;;;;;4.57;1.30;;;15.80;61.90;;;;;;5020271;28;20073;-64
2022/05/28 05:35:58;;;;;;;6.32;1.60;;;15.90;61.60;;;;;;5018087;28;20033;-64
2022/05/28 05:38:23;;;;;;;5.40;1.60;;;16.00;61.40;;;;;;5020382;28;20412;-65
2022/05/28 05:40:51;;;;;;;3.45;1.30;;;16.00;61.10;;;;;;5018525;28;20030;-64
2022/05/28 05:43:18;;;;;;;5.10;0.90;;;16.10;60.90;;;;;;5029954;28;20030;-64
2022/05/28 05:45:51;;;;;;;4.75;0.90;;;16.10;60.80;;;;;;5032042;28;20029;-64
2022/05/28 05:48:17;;;;;;;5.05;1.10;;;16.20;60.60;;;;;;5037276;28;20117;-64
2022/05/28 05:50:43;;;;;;;3.65;1.10;;;16.30;60.50;;;;;;5037408;28;20057;-64
2022/05/28 05:53:08;;;;;;;5.18;1.17;;;16.30;60.20;;;;;;5034002;28;20033;-64
2022/05/28 05:55:34;;;;;;;3.47;0.82;;;16.40;60.00;;;;;;5033659;28;20120;-64
2022/05/28 05:57:59;;;;;;;9.15;1.75;;;16.40;59.80;;;;;;5033840;28;20026;-64
2022/05/28 06:00:25;;;;;;;3.85;1.40;;;16.50;59.60;;;;;;5013291;28;20033;-64
2022/05/28 06:02:51;;;;;;;3.90;1.02;;;16.60;59.30;;;;;;5028278;28;20072;-64
2022/05/28 06:05:16;;;;;;;6.43;1.42;;;16.60;59.00;;;;;;5031784;28;20025;-64
2022/05/28 06:07:42;;;;;;;7.07;1.20;;;16.60;58.80;;;;;;5016345;28;20036;-64
2022/05/28 06:10:10;;;;;;;6.88;1.33;;;16.60;58.60;;;;;;5034991;28;20398;-64
2022/05/28 06:12:36;;;;;;;6.43;1.65;;;16.70;58.50;;;;;;5033611;28;20311;-65
2022/05/28 06:15:02;;;;;;;5.45;1.35;;;16.70;58.30;;;;;;5029223;28;20048;-64
2022/05/28 06:17:27;;;;;;;5.85;1.38;;;16.80;58.70;;;;;;5025121;28;20385;-65
2022/05/28 06:19:53;;;;;;;2.78;0.80;;;16.80;57.90;;;;;;5033398;28;20034;-64
2022/05/28 06:22:18;;;;;;;6.32;1.40;;;17.00;57.70;;;;;;5033175;28;20026;-64
2022/05/28 06:24:44;;;;;;;8.23;1.73;;;17.10;57.00;;;;;;5030925;28;20037;-64
2022/05/28 06:27:09;;;;;;;6.28;1.35;;;17.30;56.60;;;;;;5021132;28;20061;-65
2022/05/28 06:29:35;;;;;;;5.82;1.40;;;17.40;55.70;;;;;;5029230;28;20029;-66
2022/05/28 06:32:00;;;;;;;5.15;1.40;;;17.30;55.20;;;;;;5051001;28;20073;-64
2022/05/28 06:34:26;;;;;;;11.65;1.40;;;17.30;54.70;;;;;;5033947;28;20041;-65
2022/05/28 06:36:53;;;;;;;6.55;1.20;;;17.40;54.40;;;;;;5031090;28;20278;-66
2022/05/28 06:39:19;;;;;;;5.20;1.25;;;17.50;54.20;;;;;;5033111;28;20076;-64
2022/05/28 06:41:44;;;;;;;5.82;1.50;;;17.70;53.70;;;;;;5030063;28;20025;-65
2022/05/28 06:44:11;;;;;;;8.48;1.33;;;17.80;53.20;;;;;;5025788;28;20057;-65
2022/05/28 06:46:37;;;;;;;4.47;1.23;;;17.80;52.90;;;;;;5033900;28;20403;-65
2022/05/28 06:49:02;;;;;;;5.97;1.45;;;17.80;52.40;;;;;;5030691;28;20459;-66
2022/05/28 06:51:28;;;;;;;6.53;1.20;;;17.70;52.40;;;;;;5026747;28;20116;-64
2022/05/28 06:53:54;;;;;;;5.18;1.40;;;17.80;52.30;;;;;;5025556;28;20125;-65
2022/05/28 06:56:20;;;;;;;6.72;1.73;;;17.90;52.10;;;;;;5033020;28;20022;-65
2022/05/28 06:58:46;;;;;;;4.82;1.40;;;18.10;51.90;;;;;;5035273;28;20378;-65
2022/05/28 07:01:14;;;;;;;6.00;1.25;;;18.30;51.70;;;;;;5019697;28;20038;-65
2022/05/28 07:03:40;;;;;;;4.65;1.20;;;18.50;51.30;;;;;;5024682;28;20466;-65
2022/05/28 07:06:06;;;;;;;6.90;1.45;;;18.60;50.60;;;;;;5028378;28;21359;-67
2022/05/28 07:08:32;;;;;;;4.93;1.30;;;18.40;50.10;;;;;;5033354;28;20018;-65
2022/05/28 07:11:00;;;;;;;5.88;1.08;;;18.20;50.60;;;;;;5034586;28;20484;-64
2022/05/28 07:13:27;;;;;;;4.63;1.10;;;18.20;50.80;;;;;;5028673;28;20083;-64
2022/05/28 07:15:52;;;;;;;5.85;1.50;;;18.10;50.90;;;;;;5030521;28;20086;-64
2022/05/28 07:18:19;;;;;;;8.23;1.60;;;18.10;51.10;;;;;;5022232;28;20108;-64
2022/05/28 07:20:44;;;;;;;5.53;1.48;;;18.10;51.10;;;;;;5025427;28;20409;-64
2022/05/28 07:23:15;;;;;;;5.57;1.42;;;18.20;51.00;;;;;;5031534;28;20461;-64
2022/05/28 07:25:42;;;;;;;9.63;1.85;;;18.40;50.50;;;;;;5028152;28;20041;-65
2022/05/28 07:31:15;;;;;;;7.50;1.48;;;18.30;50.40;;;;;;5027236;28;20148;-65
2022/05/28 07:33:44;;;;;;;8.35;1.52;;;18.30;50.20;;;;;;5034119;28;20033;-65
2022/05/28 07:36:13;;;;;;;5.80;1.30;;;18.60;49.80;;;;;;5032271;28;20469;-65
2022/05/28 07:38:39;;;;;;;3.65;1.13;;;18.80;49.00;;;;;;5033000;28;20464;-66
2022/05/28 07:41:08;;;;;;;5.30;1.35;;;19.00;48.60;;;;;;5029829;28;20029;-65
2022/05/28 07:43:38;;;;;;;8.02;1.35;;;19.20;48.20;;;;;;5018510;28;20402;-65
2022/05/28 07:46:10;;;;;;;5.55;1.30;;;19.30;48.00;;;;;;5031433;28;20446;-65
2022/05/28 07:48:36;;;;;;;7.53;1.50;;;19.40;47.70;;;;;;5034169;28;20044;-65
2022/05/28 07:51:01;;;;;;;5.65;1.38;;;19.30;47.40;;;;;;5021305;28;20030;-65
2022/05/28 07:53:27;;;;;;;7.07;1.50;;;19.30;47.40;;;;;;5029326;28;20033;-65
2022/05/28 07:55:53;;;;;;;5.78;1.40;;;19.50;47.00;;;;;;5028332;28;20032;-65
2022/05/28 07:58:20;;;;;;;5.53;1.60;;;19.80;46.90;;;;;;5023681;28;20025;-65
2022/05/28 08:00:48;;;;;;;7.00;1.40;;;19.80;46.70;;;;;;5027994;28;20029;-64
2022/05/28 08:03:15;;;;;;;6.32;1.50;;;19.60;46.60;;;;;;5030196;28;20090;-65
2022/05/28 08:05:43;;;;;;;6.00;1.35;;;19.40;47.10;;;;;;5034504;28;20521;-65
2022/05/28 08:08:09;;;;;;;7.50;1.65;;;19.10;47.30;;;;;;5034247;28;20402;-65
2022/05/28 08:10:35;;;;;;;5.25;1.42;;;18.90;47.70;;;;;;5026785;28;20072;-65
2022/05/28 08:13:07;;;;;;;6.28;1.35;;;18.70;48.00;;;;;;5030220;28;20040;-65
2022/05/28 08:15:39;;;;;;;7.18;1.50;;;18.60;48.00;;;;;;5023018;28;20524;-65
2022/05/28 08:18:05;;;;;;;7.25;2.08;;;18.50;48.10;;;;;;5033518;28;20025;-65
2022/05/28 08:23:15;;;;;;;5.03;1.52;;;18.40;48.40;;;;;;5030392;28;20045;-65
2022/05/28 08:25:41;;;;;;;6.45;1.65;;;18.50;48.30;;;;;;5031672;28;20379;-65
2022/05/28 08:28:08;;;;;;;7.90;1.52;;;18.60;48.00;;;;;;5026141;28;20046;-65
2022/05/28 08:30:35;;;;;;;7.65;1.75;;;18.60;48.00;;;;;;5030914;28;20030;-65
2022/05/28 08:33:01;;;;;;;8.75;1.90;;;18.80;48.00;;;;;;5030741;28;20033;-65
2022/05/28 08:35:27;;;;;;;8.00;1.35;;;19.10;47.80;;;;;;5028096;28;20021;-65
2022/05/28 08:37:53;;;;;;;6.85;1.83;;;19.40;47.40;;;;;;5033755;28;20029;-65
2022/05/28 08:40:18;;;;;;;8.40;1.33;;;19.80;47.00;;;;;;5029603;28;20033;-65
2022/05/28 08:42:44;;;;;;;5.32;1.80;;;20.10;46.20;;;;;;5025322;28;20025;-65
2022/05/28 08:45:13;;;;;;;4.00;1.17;;;20.30;45.60;;;;;;5027756;28;20034;-65
2022/05/28 08:47:42;;;;;;;6.97;1.45;;;20.50;45.20;;;;;;5033212;28;20127;-65
2022/05/28 08:50:10;;;;;;;4.97;1.60;;;20.70;44.90;;;;;;5031692;28;20120;-65
2022/05/28 08:53:13;;;;;;;8.90;1.80;;;21.10;44.40;;;;;;5019338;28;20072;-65
2022/05/28 08:55:45;;;;;;;4.28;1.45;;;21.30;43.40;;;;;;5029114;28;20034;-65
2022/05/28 08:58:17;;;;;;;7.55;1.73;;;21.30;43.10;;;;;;5032129;28;20029;-65
2022/05/28 09:01:06;;;;;;;7.03;1.90;;;20.90;43.20;;;;;;4998103;28;20025;-65
2022/05/28 09:03:57;;;;;;;5.25;1.52;;;20.50;43.60;;;;;;5022389;28;20144;-65
2022/05/28 09:06:30;;;;;;;5.90;1.70;;;20.20;43.80;;;;;;5033666;28;20048;-65
2022/05/28 09:08:56;;;;;;;7.13;1.30;;;20.10;44.30;;;;;;5032566;28;20029;-65
2022/05/28 09:11:34;;;;;;;5.50;1.58;;;20.20;44.30;;;;;;5027080;28;20144;-65
2022/05/28 09:14:22;;;;;;;6.32;1.73;;;20.30;43.90;;;;;;5030221;28;20036;-65
2022/05/28 09:16:50;;;;;;;6.97;1.67;;;20.10;43.80;;;;;;5035241;28;20026;-65
2022/05/28 09:19:23;;;;;;;7.13;1.50;;;19.70;44.20;;;;;;5023652;28;20022;-65
2022/05/28 09:21:49;;;;;;;6.00;1.60;;;19.70;44.40;;;;;;5024696;28;20022;-65
2022/05/28 09:24:25;;;;;;;4.70;1.80;;;19.90;44.10;;;;;;5031539;28;20044;-65
2022/05/28 09:26:54;;;;;;;7.85;2.40;;;20.30;43.50;;;;;;5032293;28;20032;-65
2022/05/28 09:29:48;;;;;;;7.55;2.25;;;20.70;42.90;;;;;;5027845;28;20056;-65
2022/05/28 09:32:25;;;;;;;4.63;1.38;;;21.00;42.40;;;;;;5028429;28;20463;-67
2022/05/28 09:35:15;;;;;;;5.82;1.45;;;21.10;42.10;;;;;;5028541;28;20109;-66
2022/05/28 09:37:59;;;;;;;7.22;1.63;;;20.90;42.00;;;;;;5023985;28;20033;-65
2022/05/28 09:40:38;;;;;;;6.82;1.55;;;20.50;42.10;;;;;;5029045;28;20040;-65
2022/05/28 09:43:25;;;;;;;5.38;1.38;;;20.10;42.80;;;;;;5029135;28;20034;-65
2022/05/28 09:46:17;;;;;;;5.45;1.58;;;19.90;43.30;;;;;;5026311;28;20355;-65
2022/05/28 09:48:43;;;;;;;5.65;1.20;;;20.00;43.40;;;;;;5033056;28;20104;-65
2022/05/28 09:51:28;;;;;;;7.70;1.70;;;20.40;43.20;;;;;;5032118;28;20116;-65
2022/05/28 09:54:17;;;;;;;4.20;1.20;;;20.70;42.60;;;;;;5049227;28;20723;-65
2022/05/28 09:56:55;;;;;;;4.10;1.30;;;21.00;42.20;;;;;;5023089;28;20041;-65
2022/05/28 09:59:43;;;;;;;4.40;1.15;;;21.00;41.80;;;;;;5036919;28;20076;-65
2022/05/28 10:02:34;;;;;;;5.30;1.17;;;20.80;41.40;;;;;;5026243;28;20029;-65
2022/05/28 10:05:16;;;;;;;3.45;1.20;;;20.40;41.10;;;;;;5025955;28;20033;-65
2022/05/28 10:07:48;;;;;;;7.35;1.70;;;20.40;41.50;;;;;;5032392;28;20030;-65
2022/05/28 10:10:25;;;;;;;4.55;1.60;;;20.70;41.20;;;;;;5036238;28;20047;-67
2022/05/28 10:12:51;;;;;;;5.18;1.42;;;21.00;40.80;;;;;;5031457;28;20060;-66
2022/05/28 10:15:22;;;;;;;5.05;1.50;;;21.40;40.50;;;;;;5032921;28;20025;-67
2022/05/28 10:17:58;;;;;;;5.90;1.48;;;21.40;40.10;;;;;;5039878;28;20022;-67
2022/05/28 10:20:25;;;;;;;6.63;1.80;;;21.20;40.10;;;;;;5029724;28;20029;-67
2022/05/28 10:22:55;;;;;;;5.10;1.40;;;20.80;40.70;;;;;;5020995;28;20033;-66
2022/05/28 10:25:50;;;;;;;8.32;1.65;;;20.50;41.20;;;;;;5017799;28;20084;-66
2022/05/28 10:28:32;;;;;;;4.82;1.48;;;20.50;41.70;;;;;;5016605;28;20026;-66
2022/05/28 10:30:58;;;;;;;6.93;1.40;;;20.90;41.70;;;;;;5023070;28;20050;-66
2022/05/28 10:33:28;;;;;;;7.35;1.50;;;21.10;41.50;;;;;;5027332;28;20037;-66
2022/05/28 10:36:06;;;;;;;7.40;1.88;;;21.20;41.00;;;;;;5032400;28;20037;-66
2022/05/28 10:38:32;;;;;;;6.10;1.63;;;21.40;40.60;;;;;;5036134;28;20406;-66
2022/05/28 10:41:01;;;;;;;6.28;1.80;;;21.50;40.00;;;;;;5032447;28;20030;-66
2022/05/28 10:43:36;;;;;;;5.32;1.27;;;21.60;39.70;;;;;;5028700;28;20065;-66
2022/05/28 10:46:07;;;;;;;7.22;1.60;;;21.70;39.60;;;;;;5036324;28;20033;-66
2022/05/28 10:48:54;;;;;;;4.47;1.50;;;21.30;39.70;;;;;;5035164;28;20033;-65
2022/05/28 10:51:37;;;;;;;7.13;1.83;;;21.00;40.20;;;;;;5030218;28;20037;-65
2022/05/28 10:54:27;;;;;;;5.30;1.30;;;21.00;40.70;;;;;;5027625;28;20127;-66
2022/05/28 10:57:12;;;;;;;4.35;1.20;;;21.40;40.30;;;;;;5021609;28;20022;-67
2022/05/28 11:00:03;;;;;;;9.27;1.75;;;21.60;39.70;;;;;;5035061;28;20018;-66
2022/05/28 11:02:35;;;;;;;6.93;1.65;;;21.70;39.50;;;;;;5029412;28;20040;-67
2022/05/28 11:05:37;;;;;;;;;;;21.50;39.60;;;;;;5018820;28;20437;-67
2022/05/28 11:08:28;;;;;;;5.28;1.52;;;21.60;39.90;;;;;;5023977;28;19955;-67
2022/05/28 11:11:02;;;;;;;5.68;1.25;;;21.90;39.30;;;;;;5048198;28;20025;-66
2022/05/28 11:13:56;;;;;;;7.38;1.95;;;22.10;38.90;;;;;;5022188;28;20414;-66
2022/05/28 11:16:34;;;;;;;7.47;1.98;;;21.90;38.10;;;;;;5031609;28;20033;-65
2022/05/28 11:19:23;;;;;;;6.53;1.98;;;21.70;38.50;;;;;;5035011;28;20033;-66
2022/05/28 11:22:43;;;;;;;7.03;1.80;;;21.30;38.80;;;;;;5023696;28;20355;-66
2022/05/28 11:25:30;;;;;;;4.15;1.40;;;20.90;39.20;;;;;;4983488;28;20073;-65
2022/05/28 11:28:20;;;;;;;4.57;1.30;;;20.50;39.90;;;;;;4984035;28;20109;-65
2022/05/28 11:30:49;;;;;;;7.18;1.75;;;20.60;39.80;;;;;;4975273;28;20034;-65
2022/05/28 11:33:26;;;;;;;5.10;1.20;;;20.90;39.40;;;;;;4971536;28;20178;-67
2022/05/28 11:36:08;;;;;;;5.40;1.73;;;21.20;39.00;;;;;;4964816;28;20114;-67
2022/05/28 11:38:53;;;;;;;5.85;1.42;;;21.30;38.60;;;;;;4985226;28;20126;-68
2022/05/28 11:41:28;;;;;;;4.05;1.10;;;21.30;38.30;;;;;;4978664;28;20027;-65
2022/05/28 11:44:13;;;;;;;3.78;1.33;;;21.40;38.20;;;;;;4987825;28;20092;-65
2022/05/28 11:47:16;;;;;;;7.18;1.70;;;21.50;38.40;;;;;;4989103;28;20046;-65
2022/05/28 11:52:58;;;;;;;3.22;1.15;;;21.80;37.60;;;;;;4985283;28;20486;-65
2022/05/28 11:55:27;;;;;;;6.97;1.67;;;21.60;37.60;;;;;;4985187;28;20049;-65
2022/05/28 11:58:15;;;;;;;4.47;1.60;;;21.30;37.80;;;;;;4974629;28;20380;-65
2022/05/28 12:00:45;;;;;;;5.32;1.33;;;20.90;37.80;;;;;;5023412;28;20049;-65
2022/05/28 12:03:26;;;;;;;5.10;1.45;;;20.60;37.70;;;;;;5028156;28;20038;-65
2022/05/28 12:06:02;;;;;;;5.22;1.38;;;20.50;37.70;;;;;;5023622;28;20254;-65
2022/05/28 12:08:42;;;;;;;5.20;1.65;;;20.60;37.30;;;;;;5032106;28;20029;-65
2022/05/28 12:11:37;;;;;;;5.30;1.30;;;20.70;37.10;;;;;;5013399;28;20041;-65
2022/05/28 12:14:07;;;;;;;4.50;1.30;;;20.80;37.10;;;;;;5018301;28;20029;-65
2022/05/28 12:16:43;;;;;;;4.50;1.50;;;20.80;37.00;;;;;;5017966;28;20029;-65
2022/05/28 12:19:13;;;;;;;5.22;1.30;;;20.70;36.70;;;;;;5032480;28;20021;-65
2022/05/28 12:21:40;;;;;;;5.55;1.63;;;20.80;36.70;;;;;;5032889;28;20071;-65
2022/05/28 12:24:10;;;;;;;4.45;1.40;;;20.80;36.70;;;;;;5020398;28;20044;-65
2022/05/28 12:26:57;;;;;;;5.70;1.70;;;21.00;36.80;;;;;;5023512;28;20033;-65
2022/05/28 12:29:33;;;;;;;3.47;1.38;;;21.00;36.90;;;;;;5034828;28;20116;-65
2022/05/28 12:32:12;;;;;;;5.40;1.60;;;21.00;37.10;;;;;;5031743;28;20053;-65
2022/05/28 12:34:51;;;;;;;6.22;1.75;;;20.90;37.00;;;;;;5041505;28;20053;-66
2022/05/28 12:37:22;;;;;;;5.15;1.38;;;20.70;37.30;;;;;;5028975;28;20033;-66
2022/05/28 12:40:01;;;;;;;;;;;20.70;37.40;;;;;;5030753;28;20027;-67
2022/05/28 12:42:30;;;;;;;6.05;1.20;;;20.70;37.50;;;;;;5034129;28;19909;-66
2022/05/28 12:44:56;;;;;;;4.47;1.50;;;20.60;37.70;;;;;;5028071;28;20029;-66
2022/05/28 12:47:25;;;;;;;6.90;1.70;;;20.70;37.70;;;;;;5045699;28;20056;-66
2022/05/28 12:50:05;;;;;;;4.72;1.40;;;20.80;36.80;;;;;;5034114;28;20076;-66
2022/05/28 12:52:52;;;;;;;4.75;1.50;;;20.70;36.50;;;;;;5021016;28;20121;-66
2022/05/28 12:55:35;;;;;;;4.40;1.20;;;20.60;36.60;;;;;;5030633;28;20033;-66
2022/05/28 12:58:28;;;;;;;4.85;1.40;;;20.40;36.70;;;;;;5026479;28;20319;-66
2022/05/28 13:01:05;;;;;;;7.32;1.48;;;20.30;36.90;;;;;;5032091;28;20112;-66
2022/05/28 13:03:40;;;;;;;5.68;1.25;;;20.20;36.50;;;;;;5032654;28;20443;-66
2022/05/28 13:06:12;;;;;;;5.00;1.27;;;20.20;36.70;;;;;;5030695;28;20100;-66
2022/05/28 13:08:47;;;;;;;6.90;1.70;;;20.10;37.20;;;;;;5033664;28;20043;-66
2022/05/28 13:11:36;;;;;;;7.15;1.50;;;20.00;37.60;;;;;;5017046;28;20037;-66
2022/05/28 13:14:20;;;;;;;6.53;1.50;;;19.90;38.00;;;;;;5047278;28;20342;-65
2022/05/28 13:17:04;;;;;;;6.57;1.50;;;19.90;38.40;;;;;;5027907;28;20270;-65
2022/05/28 13:19:50;;;;;;;7.75;1.85;;;19.80;38.80;;;;;;5033728;28;20037;-65